Terminal Aerodrome Forecast
Issued by NWS

Home | Current Version | Previous Version | Text Only | Print | Product List | Glossary On
Versions: 1 2 3 4 5 6 7 8 9 10 11 12 13 14 15 16 17 18 19 20 21 22
000
FTUS43 KGRR 031741
TAFJXN
TAF
KJXN 031741Z 0318/0418 26007KT P6SM VCTS BKN030CB
     FM040100 24004KT 5SM BR SCT030 BKN060
     FM040500 00000KT 2SM BR SCT015
     FM040800 00000KT 1SM BR BKN007
     FM041400 18005KT 3SM BR BKN200
     FM041500 21007KT P6SM BKN050=

USA.gov is the U.S. government's official web portal to all federal, state and local government web resources and services.